Terminal Aerodrome Forecast
Issued by NWS Cleveland, OH

Home | Current Version | Previous Version | Text Only | Print | Product List | Glossary Off
Versions: 1 2 3 4 5 6 7 8 9 10 11 12 13 14 15 16 17 18

000
FTUS41 KCLE 192101 AAA
TAFMFD
TAF AMD
KMFD 192101Z 1921/2018 21012KT P6SM VCSH SCT030 BKN070
      TEMPO 1922/1924 2SM SHRA OVC020
     FM200300 24007KT P6SM BKN015
     FM200900 28006KT 2SM BR BKN005
     FM201300 32005KT P6SM BKN010
     FM201600 36005KT P6SM BKN020=

USA.gov is the U.S. government's official web portal to all federal, state and local government web resources and services.